sensor_id;sensor_type;location;lat;lon;timestamp;pressure;altitude;pressure_sealevel;temperature;humidity
69214;BME280;56325;47.030;18.518;2023-04-21T04:37:39;100414.69;;;13.56;69.36
69214;BME280;56325;47.030;18.518;2023-04-21T04:40:14;100414.69;;;13.56;69.36
69214;BME280;56325;47.030;18.518;2023-04-21T04:42:49;100417.00;;;12.47;68.88
69214;BME280;56325;47.030;18.518;2023-04-21T04:45:25;100424.28;;;12.60;69.11
69214;BME280;56325;47.030;18.518;2023-04-21T04:48:01;100425.22;;;12.57;69.18
69214;BME280;56325;47.030;18.518;2023-04-21T04:50:36;100429.34;;;12.28;67.92
69214;BME280;56325;47.030;18.518;2023-04-21T04:53:12;100427.44;;;12.43;68.78
69214;BME280;56325;47.030;18.518;2023-04-21T04:55:47;100426.72;;;12.34;67.66
69214;BME280;56325;47.030;18.518;2023-04-21T04:58:21;100433.72;;;12.11;66.51
69214;BME280;56325;47.030;18.518;2023-04-21T05:00:56;100436.87;;;12.19;65.52
69214;BME280;56325;47.030;18.518;2023-04-21T05:03:30;100432.69;;;12.32;65.90
69214;BME280;56325;47.030;18.518;2023-04-21T05:06:05;100439.31;;;12.17;66.76
69214;BME280;56325;47.030;18.518;2023-04-21T05:08:41;100437.78;;;12.25;65.70
69214;BME280;56325;47.030;18.518;2023-04-21T05:11:17;100434.47;;;12.44;63.44
69214;BME280;56325;47.030;18.518;2023-04-21T05:13:51;100444.34;;;12.27;64.55
69214;BME280;56325;47.030;18.518;2023-04-21T05:16:26;100432.06;;;13.71;84.13
69214;BME280;56325;47.030;18.518;2023-04-21T05:19:00;100434.72;;;13.81;66.99
69214;BME280;56325;47.030;18.518;2023-04-21T05:21:36;100430.78;;;13.43;64.52
69214;BME280;56325;47.030;18.518;2023-04-21T05:24:12;100434.09;;;13.32;64.64
69214;BME280;56325;47.030;18.518;2023-04-21T05:26:47;100434.28;;;13.29;63.95
69214;BME280;56325;47.030;18.518;2023-04-21T05:29:21;100429.09;;;13.22;64.00
69214;BME280;56325;47.030;18.518;2023-04-21T05:31:56;100432.81;;;13.19;64.95
69214;BME280;56325;47.030;18.518;2023-04-21T05:34:30;100433.31;;;13.32;64.33
69214;BME280;56325;47.030;18.518;2023-04-21T05:37:05;100433.53;;;13.43;63.37
69214;BME280;56325;47.030;18.518;2023-04-21T05:39:41;100434.69;;;13.51;63.31
69214;BME280;56325;47.030;18.518;2023-04-21T05:42:16;100435.25;;;13.40;62.68
69214;BME280;56325;47.030;18.518;2023-04-21T05:44:51;100440.22;;;13.51;63.18
69214;BME280;56325;47.030;18.518;2023-04-21T05:47:26;100438.91;;;14.05;77.07
69214;BME280;56325;47.030;18.518;2023-04-21T05:50:00;100431.75;;;15.45;77.19
69214;BME280;56325;47.030;18.518;2023-04-21T05:52:36;100438.91;;;14.90;62.72
69214;BME280;56325;47.030;18.518;2023-04-21T05:55:12;100445.94;;;14.51;60.57
69214;BME280;56325;47.030;18.518;2023-04-21T05:57:46;100442.31;;;14.45;61.50
69214;BME280;56325;47.030;18.518;2023-04-21T06:03:01;100447.47;;;14.52;59.35
69214;BME280;56325;47.030;18.518;2023-04-21T06:05:37;100447.47;;;14.52;59.35
69214;BME280;56325;47.030;18.518;2023-04-21T06:08:12;100452.44;;;14.18;59.95
69214;BME280;56325;47.030;18.518;2023-04-21T06:10:46;100447.56;;;14.28;59.19
69214;BME280;56325;47.030;18.518;2023-04-21T06:13:21;100458.63;;;14.13;57.84
69214;BME280;56325;47.030;18.518;2023-04-21T06:15:56;100447.84;;;14.15;58.29
69214;BME280;56325;47.030;18.518;2023-04-21T06:18:31;100456.25;;;14.21;57.93
69214;BME280;56325;47.030;18.518;2023-04-21T06:21:07;100452.81;;;14.26;56.76
69214;BME280;56325;47.030;18.518;2023-04-21T06:23:41;100455.94;;;14.33;57.82
69214;BME280;56325;47.030;18.518;2023-04-21T06:26:15;100454.50;;;14.38;57.06
69214;BME280;56325;47.030;18.518;2023-04-21T06:28:50;100452.22;;;14.51;55.99
69214;BME280;56325;47.030;18.518;2023-04-21T06:31:25;100449.47;;;14.51;57.31
69214;BME280;56325;47.030;18.518;2023-04-21T06:34:01;100449.91;;;14.64;57.00
69214;BME280;56325;47.030;18.518;2023-04-21T06:36:35;100453.50;;;14.70;56.13
69214;BME280;56325;47.030;18.518;2023-04-21T06:39:10;100443.81;;;14.60;54.45
69214;BME280;56325;47.030;18.518;2023-04-21T06:41:44;100444.22;;;14.53;54.72
69214;BME280;56325;47.030;18.518;2023-04-21T06:44:19;100439.59;;;14.65;55.65
69214;BME280;56325;47.030;18.518;2023-04-21T06:46:54;100452.31;;;14.57;54.89
69214;BME280;56325;47.030;18.518;2023-04-21T06:49:30;100447.22;;;14.70;54.96
69214;BME280;56325;47.030;18.518;2023-04-21T06:52:06;100453.53;;;15.11;62.03
69214;BME280;56325;47.030;18.518;2023-04-21T06:54:40;100448.56;;;15.87;61.00
69214;BME280;56325;47.030;18.518;2023-04-21T06:57:15;100444.72;;;15.79;53.85
69214;BME280;56325;47.030;18.518;2023-04-21T06:59:50;100446.31;;;15.60;52.79
69214;BME280;56325;47.030;18.518;2023-04-21T07:02:25;100443.06;;;15.41;52.25
69214;BME280;56325;47.030;18.518;2023-04-21T07:05:01;100453.47;;;15.26;52.10
69214;BME280;56325;47.030;18.518;2023-04-21T07:07:36;100454.00;;;15.30;50.99
69214;BME280;56325;47.030;18.518;2023-04-21T07:17:14;100452.50;;;15.29;50.99
69214;BME280;56325;47.030;18.518;2023-04-21T14:03:08;100188.44;;;23.68;31.67
69214;BME280;56325;47.030;18.518;2023-04-21T14:05:44;100188.44;;;23.68;31.67
69214;BME280;56325;47.030;18.518;2023-04-21T14:08:19;100189.13;;;22.91;32.96
69214;BME280;56325;47.030;18.518;2023-04-21T14:10:55;100189.91;;;22.44;33.52
69214;BME280;56325;47.030;18.518;2023-04-21T14:13:30;100192.34;;;21.61;33.92
69214;BME280;56325;47.030;18.518;2023-04-21T14:16:17;100193.53;;;21.20;35.33
69214;BME280;56325;47.030;18.518;2023-04-21T14:18:52;100187.28;;;22.12;35.43
69214;BME280;56325;47.030;18.518;2023-04-21T14:21:27;100169.78;;;22.66;34.82
69214;BME280;56325;47.030;18.518;2023-04-21T14:24:02;100176.69;;;22.65;32.77
69214;BME280;56325;47.030;18.518;2023-04-21T14:26:37;100175.31;;;22.93;41.12
69214;BME280;56325;47.030;18.518;2023-04-21T14:29:11;100168.88;;;23.26;33.04
69214;BME280;56325;47.030;18.518;2023-04-21T14:31:46;100177.22;;;22.98;31.21
69214;BME280;56325;47.030;18.518;2023-04-21T14:34:23;100166.41;;;23.02;32.49
69214;BME280;56325;47.030;18.518;2023-04-21T14:36:58;100170.94;;;23.05;32.18
69214;BME280;56325;47.030;18.518;2023-04-21T14:39:33;100176.88;;;22.67;33.27
69214;BME280;56325;47.030;18.518;2023-04-21T14:42:08;100175.31;;;21.98;33.83
69214;BME280;56325;47.030;18.518;2023-04-21T14:44:42;100176.47;;;21.23;34.53
69214;BME280;56325;47.030;18.518;2023-04-21T14:47:17;100172.37;;;21.24;35.05
69214;BME280;56325;47.030;18.518;2023-04-21T14:49:53;100171.12;;;21.07;35.20
69214;BME280;56325;47.030;18.518;2023-04-21T14:52:28;100165.87;;;20.71;35.82
69214;BME280;56325;47.030;18.518;2023-04-21T14:55:02;100171.38;;;20.58;36.74
69214;BME280;56325;47.030;18.518;2023-04-21T14:57:37;100175.41;;;20.44;35.74
69214;BME280;56325;47.030;18.518;2023-04-21T15:00:14;100173.91;;;20.18;36.26
69214;BME280;56325;47.030;18.518;2023-04-21T15:02:49;100179.56;;;20.13;37.08
69214;BME280;56325;47.030;18.518;2023-04-21T15:05:25;100182.25;;;19.81;37.32
69214;BME280;56325;47.030;18.518;2023-04-21T15:08:00;100177.91;;;20.04;39.17
69214;BME280;56325;47.030;18.518;2023-04-21T15:10:34;100175.22;;;19.74;39.72
69214;BME280;56325;47.030;18.518;2023-04-21T15:13:09;100176.44;;;19.54;39.50
69214;BME280;56325;47.030;18.518;2023-04-21T15:15:44;100175.13;;;19.31;40.61
69214;BME280;56325;47.030;18.518;2023-04-21T15:18:19;100168.94;;;19.14;40.24
69214;BME280;56325;47.030;18.518;2023-04-21T15:20:55;100178.44;;;18.99;40.80
69214;BME280;56325;47.030;18.518;2023-04-21T15:23:29;100173.13;;;19.26;40.97
69214;BME280;56325;47.030;18.518;2023-04-21T15:26:05;100167.56;;;19.26;41.49
69214;BME280;56325;47.030;18.518;2023-04-21T15:28:42;100175.53;;;19.41;41.93
69214;BME280;56325;47.030;18.518;2023-04-21T15:31:16;100170.88;;;19.24;41.73
69214;BME280;56325;47.030;18.518;2023-04-21T15:33:51;100171.75;;;19.38;41.34
69214;BME280;56325;47.030;18.518;2023-04-21T15:36:27;100164.09;;;19.44;41.55
69214;BME280;56325;47.030;18.518;2023-04-21T15:39:02;100163.41;;;19.87;40.54
69214;BME280;56325;47.030;18.518;2023-04-21T15:41:37;100163.34;;;19.92;39.76
69214;BME280;56325;47.030;18.518;2023-04-21T15:44:11;100160.94;;;19.59;39.64
69214;BME280;56325;47.030;18.518;2023-04-21T15:46:46;100161.75;;;19.24;40.81
69214;BME280;56325;47.030;18.518;2023-04-21T15:49:21;100154.22;;;19.43;41.13
69214;BME280;56325;47.030;18.518;2023-04-21T15:52:03;100156.63;;;19.04;41.37
69214;BME280;56325;47.030;18.518;2023-04-21T15:54:39;100162.00;;;18.96;41.47
69214;BME280;56325;47.030;18.518;2023-04-21T15:57:13;100166.59;;;18.93;41.47
69214;BME280;56325;47.030;18.518;2023-04-21T15:59:48;100157.44;;;18.98;42.72
69214;BME280;56325;47.030;18.518;2023-04-21T16:02:23;100160.25;;;18.93;43.28
69214;BME280;56325;47.030;18.518;2023-04-21T16:04:58;100160.88;;;18.80;42.82
69214;BME280;56325;47.030;18.518;2023-04-21T16:07:34;100161.91;;;18.77;42.83
69214;BME280;56325;47.030;18.518;2023-04-21T16:10:09;100158.31;;;18.82;42.72
69214;BME280;56325;47.030;18.518;2023-04-21T16:12:44;100155.97;;;18.92;42.78
69214;BME280;56325;47.030;18.518;2023-04-21T16:15:23;100146.03;;;18.66;42.99
69214;BME280;56325;47.030;18.518;2023-04-21T16:17:58;100144.81;;;18.92;43.85
69214;BME280;56325;47.030;18.518;2023-04-21T16:20:35;100151.09;;;18.98;43.61
69214;BME280;56325;47.030;18.518;2023-04-21T16:23:11;100155.13;;;18.67;42.33
69214;BME280;56325;47.030;18.518;2023-04-21T16:25:46;100153.31;;;18.75;42.81
69214;BME280;56325;47.030;18.518;2023-04-21T16:28:21;100150.03;;;18.71;42.12
69214;BME280;56325;47.030;18.518;2023-04-21T16:31:05;100155.69;;;18.54;43.18
69214;BME280;56325;47.030;18.518;2023-04-21T16:33:39;100154.25;;;18.42;43.67
69214;BME280;56325;47.030;18.518;2023-04-21T16:36:14;100153.91;;;18.57;43.74
69214;BME280;56325;47.030;18.518;2023-04-21T16:38:50;100150.78;;;18.25;43.99
69214;BME280;56325;47.030;18.518;2023-04-21T16:41:25;100151.06;;;18.21;44.59
69214;BME280;56325;47.030;18.518;2023-04-21T16:44:00;100151.31;;;18.23;44.50
69214;BME280;56325;47.030;18.518;2023-04-21T21:45:10;100237.44;;;14.80;60.59
69214;BME280;56325;47.030;18.518;2023-04-21T21:47:45;100237.44;;;14.80;60.59
69214;BME280;56325;47.030;18.518;2023-04-21T21:50:20;100233.53;;;14.05;62.51
69214;BME280;56325;47.030;18.518;2023-04-21T21:52:54;100234.81;;;13.89;62.77
69214;BME280;56325;47.030;18.518;2023-04-21T21:55:29;100247.03;;;13.62;63.84
69214;BME280;56325;47.030;18.518;2023-04-21T21:58:03;100241.06;;;13.20;65.23
69214;BME280;56325;47.030;18.518;2023-04-21T22:02:57;100243.53;;;13.18;66.31
69214;BME280;56325;47.030;18.518;2023-04-21T22:05:33;100243.53;;;13.18;66.31
69214;BME280;56325;47.030;18.518;2023-04-21T22:08:07;100249.63;;;12.54;67.25
69214;BME280;56325;47.030;18.518;2023-04-21T22:10:44;100250.22;;;12.58;67.75
69214;BME280;56325;47.030;18.518;2023-04-21T22:13:19;100249.78;;;12.89;66.30
69214;BME280;56325;47.030;18.518;2023-04-21T22:15:53;100257.22;;;12.97;65.66
69214;BME280;56325;47.030;18.518;2023-04-21T22:18:30;100253.87;;;13.08;64.89
69214;BME280;56325;47.030;18.518;2023-04-21T22:21:04;100257.69;;;13.10;64.65
69214;BME280;56325;47.030;18.518;2023-04-21T22:23:39;100256.00;;;12.98;65.08
69214;BME280;56325;47.030;18.518;2023-04-21T22:26:13;100250.66;;;12.95;64.85
69214;BME280;56325;47.030;18.518;2023-04-21T22:28:48;100257.13;;;13.06;64.99
69214;BME280;56325;47.030;18.518;2023-04-21T22:31:24;100255.13;;;13.07;65.11
69214;BME280;56325;47.030;18.518;2023-04-21T22:34:00;100250.28;;;13.17;64.17
69214;BME280;56325;47.030;18.518;2023-04-21T22:36:35;100256.44;;;13.11;63.91
69214;BME280;56325;47.030;18.518;2023-04-21T22:39:09;100256.94;;;12.95;64.65
69214;BME280;56325;47.030;18.518;2023-04-21T22:41:44;100261.22;;;12.96;65.98
69214;BME280;56325;47.030;18.518;2023-04-21T22:44:18;100263.34;;;12.63;68.00
69214;BME280;56325;47.030;18.518;2023-04-21T22:46:53;100263.28;;;12.72;68.34
69214;BME280;56325;47.030;18.518;2023-04-21T22:49:29;100266.03;;;12.72;68.56
69214;BME280;56325;47.030;18.518;2023-04-21T22:52:04;100256.56;;;12.88;67.92
69214;BME280;56325;47.030;18.518;2023-04-21T22:54:38;100265.00;;;12.84;68.43
69214;BME280;56325;47.030;18.518;2023-04-21T22:57:13;100260.66;;;12.92;68.38
69214;BME280;56325;47.030;18.518;2023-04-21T22:59:47;100261.50;;;13.13;67.90
69214;BME280;56325;47.030;18.518;2023-04-21T23:02:22;100254.88;;;13.20;67.81
69214;BME280;56325;47.030;18.518;2023-04-21T23:04:59;100267.87;;;13.04;68.54
69214;BME280;56325;47.030;18.518;2023-04-21T23:07:33;100264.66;;;12.91;69.07
69214;BME280;56325;47.030;18.518;2023-04-21T23:10:09;100270.06;;;13.00;68.88
69214;BME280;56325;47.030;18.518;2023-04-21T23:12:44;100271.47;;;12.81;69.92
69214;BME280;56325;47.030;18.518;2023-04-21T23:15:18;100271.09;;;12.88;69.82
69214;BME280;56325;47.030;18.518;2023-04-21T23:17:53;100261.03;;;13.00;69.44
69214;BME280;56325;47.030;18.518;2023-04-21T23:20:29;100262.53;;;13.16;68.55
69214;BME280;56325;47.030;18.518;2023-04-21T23:23:04;100266.63;;;12.91;69.04
69214;BME280;56325;47.030;18.518;2023-04-21T23:25:40;100264.16;;;12.93;69.34
69214;BME280;56325;47.030;18.518;2023-04-21T23:28:15;100265.09;;;13.04;69.14
69214;BME280;56325;47.030;18.518;2023-04-21T23:30:49;100265.38;;;13.06;69.00
69214;BME280;56325;47.030;18.518;2023-04-21T23:33:24;100255.69;;;13.11;68.77
69214;BME280;56325;47.030;18.518;2023-04-21T23:36:00;100251.50;;;13.16;68.38
69214;BME280;56325;47.030;18.518;2023-04-21T23:38:35;100260.63;;;13.07;68.80
69214;BME280;56325;47.030;18.518;2023-04-21T23:41:09;100251.13;;;13.08;68.81
69214;BME280;56325;47.030;18.518;2023-04-21T23:43:44;100251.50;;;13.16;68.71
69214;BME280;56325;47.030;18.518;2023-04-21T23:46:19;100249.34;;;13.20;68.70
69214;BME280;56325;47.030;18.518;2023-04-21T23:48:53;100242.28;;;13.19;68.36
69214;BME280;56325;47.030;18.518;2023-04-21T23:51:29;100248.06;;;13.06;69.18
69214;BME280;56325;47.030;18.518;2023-04-21T23:54:05;100249.88;;;13.09;69.08
69214;BME280;56325;47.030;18.518;2023-04-21T23:56:40;100242.00;;;13.17;68.86
69214;BME280;56325;47.030;18.518;2023-04-21T23:59:15;100243.69;;;13.14;68.82
